Time;durP1;ratioP1;P1;durP2;ratioP2;P2;SDS_P1;SDS_P2;PMS_P1;PMS_P2;Temp;Humidity;BMP_temperature;BMP_pressure;BME280_temperature;BME280_humidity;BME280_pressure;Samples;Min_cycle;Max_cycle;Signal;HPM_P1;HPM_P2
2022/06/25 00:00:28;;;;;;;8.15;5.75;;;19.90;99.90;;;;;;5059182;28;20024;-78
2022/06/25 00:02:54;;;;;;;8.63;5.55;;;19.90;99.90;;;;;;5071645;28;20438;-78
2022/06/25 00:05:28;;;;;;;10.68;6.28;;;19.90;99.90;;;;;;5066758;28;20025;-78
2022/06/25 00:07:55;;;;;;;11.45;6.30;;;19.90;99.90;;;;;;5051922;28;20033;-78
2022/06/25 00:10:22;;;;;;;8.82;5.40;;;19.80;99.90;;;;;;5070490;28;20074;-78
2022/06/25 00:12:47;;;;;;;12.30;6.55;;;19.80;99.90;;;;;;5071704;28;20032;-78
2022/06/25 00:15:13;;;;;;;11.05;5.82;;;19.80;99.90;;;;;;5053565;28;20062;-78
2022/06/25 00:17:39;;;;;;;10.52;6.68;;;19.70;99.90;;;;;;5071542;28;20100;-77
2022/06/25 00:20:05;;;;;;;11.27;6.90;;;19.70;99.90;;;;;;5057580;28;20048;-78
2022/06/25 00:22:31;;;;;;;9.25;6.75;;;19.70;99.90;;;;;;5071493;28;20033;-77
2022/06/25 00:24:57;;;;;;;10.60;6.97;;;19.70;99.90;;;;;;5071918;28;20051;-78
2022/06/25 00:27:23;;;;;;;9.05;6.35;;;19.70;99.90;;;;;;5071274;28;20032;-78
2022/06/25 00:29:49;;;;;;;11.20;6.53;;;19.60;99.90;;;;;;5071166;28;20049;-78
2022/06/25 00:32:14;;;;;;;10.40;6.85;;;19.60;99.90;;;;;;5053122;28;20047;-79
2022/06/25 00:34:40;;;;;;;8.45;6.18;;;19.60;99.90;;;;;;5053375;28;20041;-78
2022/06/25 00:37:07;;;;;;;8.52;6.53;;;19.60;99.90;;;;;;5070951;28;20381;-79
2022/06/25 00:39:33;;;;;;;9.07;6.22;;;19.60;99.90;;;;;;5070840;28;20027;-78
2022/06/25 00:41:59;;;;;;;10.73;6.95;;;19.60;99.90;;;;;;5070786;28;20017;-78
2022/06/25 00:44:28;;;;;;;10.65;6.88;;;19.60;99.90;;;;;;5056385;28;20013;-77
2022/06/25 00:46:54;;;;;;;11.50;6.43;;;19.60;99.90;;;;;;5070863;28;20047;-79
2022/06/25 00:49:19;;;;;;;7.43;6.38;;;19.60;99.90;;;;;;5070545;28;20024;-79
2022/06/25 00:51:47;;;;;;;10.00;6.38;;;19.60;99.90;;;;;;5071127;28;20039;-78
2022/06/25 00:54:16;;;;;;;12.18;6.72;;;19.60;99.90;;;;;;5071190;28;20044;-79
2022/06/25 00:56:48;;;;;;;10.93;6.57;;;19.50;99.90;;;;;;5071098;28;20027;-79
2022/06/25 00:59:17;;;;;;;9.93;7.07;;;19.50;99.90;;;;;;5059987;28;20051;-79
2022/06/25 01:01:42;;;;;;;12.00;6.63;;;19.50;99.90;;;;;;5068478;28;20050;-79
2022/06/25 01:04:08;;;;;;;10.65;7.32;;;19.50;99.90;;;;;;5070921;28;20468;-80
2022/06/25 01:06:34;;;;;;;11.02;7.10;;;19.40;99.90;;;;;;5070925;28;20038;-79
2022/06/25 01:09:00;;;;;;;11.45;7.15;;;19.40;99.90;;;;;;5063662;28;20020;-79
2022/06/25 01:11:26;;;;;;;10.85;7.57;;;19.40;99.90;;;;;;5032989;28;20086;-79
2022/06/25 01:13:52;;;;;;;10.52;7.13;;;19.40;99.90;;;;;;5065072;28;20029;-79
2022/06/25 01:16:19;;;;;;;27.50;17.52;;;19.40;99.90;;;;;;5062638;28;20024;-77
2022/06/25 01:18:47;;;;;;;19.88;12.65;;;19.30;99.90;;;;;;5071111;28;20017;-78
2022/06/25 01:21:13;;;;;;;17.50;8.40;;;19.30;99.90;;;;;;5070865;28;20485;-78
2022/06/25 01:23:39;;;;;;;11.63;7.47;;;19.30;99.90;;;;;;5068739;28;20076;-78
2022/06/25 01:26:04;;;;;;;12.07;7.47;;;19.30;99.90;;;;;;5058728;28;20024;-78
2022/06/25 01:28:30;;;;;;;13.70;7.78;;;19.30;99.90;;;;;;5038663;28;20189;-77
2022/06/25 01:30:55;;;;;;;12.65;7.30;;;19.20;99.90;;;;;;5070748;28;20417;-77
2022/06/25 01:33:21;;;;;;;14.15;6.85;;;19.20;99.90;;;;;;5070699;28;20029;-78
2022/06/25 01:35:47;;;;;;;16.45;7.00;;;19.20;99.90;;;;;;5070639;28;20052;-78
2022/06/25 01:38:12;;;;;;;12.80;6.63;;;19.20;99.90;;;;;;5070672;28;20028;-78
2022/06/25 01:40:38;;;;;;;15.50;7.05;;;19.20;99.90;;;;;;5073849;28;20032;-77
2022/06/25 01:43:04;;;;;;;13.23;7.45;;;19.20;99.90;;;;;;5074883;28;20031;-79
2022/06/25 01:45:36;;;;;;;15.88;6.85;;;19.20;99.90;;;;;;5060637;28;20029;-77
2022/06/25 01:48:03;;;;;;;15.73;7.35;;;19.20;99.90;;;;;;5061556;28;20023;-79
2022/06/25 01:50:29;;;;;;;16.17;7.60;;;19.10;99.90;;;;;;5074351;28;20020;-77
2022/06/25 01:52:55;;;;;;;22.23;8.57;;;19.10;99.90;;;;;;5074734;28;20021;-77
2022/06/25 01:55:21;;;;;;;18.55;7.57;;;19.10;99.90;;;;;;5074241;28;20534;-77
2022/06/25 01:57:48;;;;;;;17.02;7.95;;;19.10;99.90;;;;;;5074320;28;20025;-78
2022/06/25 02:00:22;;;;;;;21.30;8.20;;;19.10;99.90;;;;;;5074219;28;20033;-77
2022/06/25 02:02:48;;;;;;;16.35;8.52;;;19.10;99.90;;;;;;5061901;28;20021;-78
2022/06/25 02:05:16;;;;;;;16.02;8.38;;;19.00;99.90;;;;;;5072514;28;20059;-78
2022/06/25 02:07:42;;;;;;;17.77;8.35;;;19.00;99.90;;;;;;5074170;28;20017;-77
2022/06/25 02:10:08;;;;;;;15.82;8.57;;;19.00;99.90;;;;;;5060140;28;20025;-78
2022/06/25 02:12:34;;;;;;;17.85;8.35;;;19.00;99.90;;;;;;5074318;28;20031;-78
2022/06/25 02:15:01;;;;;;;14.00;7.97;;;19.00;99.90;;;;;;5073918;28;20361;-78
2022/06/25 02:17:27;;;;;;;18.90;8.57;;;19.00;99.90;;;;;;5064541;28;20028;-78
2022/06/25 02:19:53;;;;;;;21.35;9.40;;;19.00;99.90;;;;;;5073856;28;20044;-78
2022/06/25 02:22:19;;;;;;;17.58;8.57;;;19.00;99.90;;;;;;5073509;28;20024;-77
2022/06/25 02:24:45;;;;;;;20.40;8.10;;;19.00;99.90;;;;;;5073864;28;20485;-77
2022/06/25 02:27:10;;;;;;;17.13;8.05;;;19.00;99.90;;;;;;5074366;28;20035;-76
2022/06/25 02:29:36;;;;;;;16.98;8.35;;;19.00;99.90;;;;;;5073677;28;20040;-77
2022/06/25 02:32:03;;;;;;;18.67;7.90;;;18.90;99.90;;;;;;5073743;28;20209;-77
2022/06/25 02:34:28;;;;;;;19.92;7.90;;;19.00;99.90;;;;;;5068723;28;20025;-78
2022/06/25 02:36:54;;;;;;;16.13;7.15;;;19.00;99.90;;;;;;5064554;28;20024;-78
2022/06/25 02:39:20;;;;;;;20.13;7.40;;;18.90;99.90;;;;;;5059413;28;20023;-79
2022/06/25 02:41:45;;;;;;;14.02;6.97;;;18.90;99.90;;;;;;5073643;28;20060;-79
2022/06/25 02:44:11;;;;;;;10.40;6.20;;;18.90;99.90;;;;;;5073302;28;20119;-78
2022/06/25 02:46:36;;;;;;;12.85;6.30;;;18.90;99.90;;;;;;5073641;28;20851;-78
2022/06/25 02:49:03;;;;;;;11.02;5.72;;;18.90;99.90;;;;;;5061157;28;20025;-78
2022/06/25 02:51:29;;;;;;;11.50;5.43;;;18.90;99.90;;;;;;5067461;28;20033;-79
2022/06/25 02:53:57;;;;;;;10.98;5.47;;;18.90;99.90;;;;;;5064299;28;20030;-78
2022/06/25 02:59:08;;;;;;;13.52;5.38;;;18.90;99.90;;;;;;5073493;28;20403;-78
2022/06/25 03:01:34;;;;;;;8.75;5.00;;;18.80;99.90;;;;;;5072989;28;20104;-77
2022/06/25 03:03:59;;;;;;;12.18;5.10;;;18.80;99.90;;;;;;5073143;28;20095;-77
2022/06/25 03:06:25;;;;;;;10.05;4.88;;;18.80;99.90;;;;;;5058962;28;20025;-77
2022/06/25 03:08:51;;;;;;;12.00;5.20;;;18.80;99.90;;;;;;5073408;28;20110;-78
2022/06/25 03:11:17;;;;;;;12.43;4.85;;;18.80;99.90;;;;;;5073218;28;20024;-78
2022/06/25 03:13:43;;;;;;;10.63;4.50;;;18.80;99.90;;;;;;5067443;28;20041;-78
2022/06/25 03:16:09;;;;;;;12.73;4.93;;;18.80;99.90;;;;;;5064784;28;20016;-78
2022/06/25 03:18:36;;;;;;;9.57;4.68;;;18.80;99.90;;;;;;5072796;28;20017;-79
2022/06/25 03:21:02;;;;;;;12.18;4.95;;;18.80;99.90;;;;;;5072751;28;20051;-78
2022/06/25 03:23:28;;;;;;;11.88;4.22;;;18.80;99.90;;;;;;5073012;28;20063;-78
2022/06/25 03:25:53;;;;;;;8.25;4.25;;;18.80;99.90;;;;;;5066203;28;20465;-78
2022/06/25 03:28:19;;;;;;;12.52;4.60;;;18.80;99.90;;;;;;5065607;28;20076;-78
2022/06/25 03:30:45;;;;;;;11.93;4.28;;;18.90;99.90;;;;;;5068156;28;20044;-79
2022/06/25 03:33:11;;;;;;;10.55;4.60;;;18.90;99.90;;;;;;5052574;28;20435;-77
2022/06/25 03:35:37;;;;;;;12.18;4.70;;;18.80;99.90;;;;;;5069462;28;20033;-78
2022/06/25 03:38:02;;;;;;;11.05;4.95;;;18.90;99.90;;;;;;5072801;28;20033;-78
2022/06/25 03:40:28;;;;;;;16.52;5.40;;;18.90;99.90;;;;;;5073156;28;20021;-78
2022/06/25 03:42:53;;;;;;;10.45;5.07;;;18.90;99.90;;;;;;5066111;28;20493;-78
2022/06/25 03:45:19;;;;;;;11.02;4.93;;;18.90;99.90;;;;;;5053110;28;20021;-77
2022/06/25 03:47:50;;;;;;;12.23;5.55;;;18.90;99.90;;;;;;5070947;28;20023;-77
2022/06/25 03:50:16;;;;;;;10.85;4.68;;;18.90;99.90;;;;;;5072508;28;20173;-77
2022/06/25 03:52:41;;;;;;;12.10;5.35;;;18.90;99.90;;;;;;5055084;28;20025;-77
2022/06/25 03:55:07;;;;;;;13.18;5.22;;;18.90;99.90;;;;;;5061766;28;20104;-77
2022/06/25 03:57:35;;;;;;;8.77;5.18;;;18.90;99.90;;;;;;5072338;28;20415;-78
2022/06/25 04:00:00;;;;;;;10.55;5.22;;;18.90;99.90;;;;;;5072293;28;20017;-78
2022/06/25 04:02:26;;;;;;;13.00;5.15;;;18.90;99.90;;;;;;5071255;28;20051;-78
2022/06/25 04:04:52;;;;;;;11.10;5.07;;;18.90;99.90;;;;;;5072111;28;20046;-78
2022/06/25 04:07:17;;;;;;;14.63;5.47;;;18.90;99.90;;;;;;5072115;28;20516;-78
2022/06/25 04:09:43;;;;;;;11.73;4.43;;;18.90;99.90;;;;;;5071914;28;20027;-78
2022/06/25 04:12:08;;;;;;;11.23;4.35;;;18.90;99.90;;;;;;5071969;28;20099;-78
2022/06/25 04:14:34;;;;;;;9.65;4.35;;;19.00;99.90;;;;;;5071885;28;20045;-78
2022/06/25 04:17:00;;;;;;;11.57;4.90;;;18.90;99.90;;;;;;5053744;28;20013;-78
2022/06/25 04:19:25;;;;;;;10.15;3.80;;;18.90;99.90;;;;;;5072140;28;20024;-78
2022/06/25 04:21:51;;;;;;;9.50;4.00;;;19.00;99.90;;;;;;5055214;28;20518;-79
2022/06/25 04:24:17;;;;;;;10.32;4.40;;;19.00;99.90;;;;;;5072323;28;20064;-78
2022/06/25 04:26:43;;;;;;;7.60;3.85;;;19.00;99.90;;;;;;5058258;28;20025;-78
2022/06/25 04:29:08;;;;;;;7.43;3.83;;;19.00;99.90;;;;;;5070960;28;20052;-78
2022/06/25 04:31:36;;;;;;;9.93;3.72;;;19.00;99.90;;;;;;5071338;28;20065;-78
2022/06/25 04:34:03;;;;;;;9.63;3.90;;;19.00;99.90;;;;;;5053953;28;20024;-78
2022/06/25 04:36:29;;;;;;;13.05;3.42;;;19.00;99.90;;;;;;5061136;28;20031;-79
2022/06/25 04:38:55;;;;;;;7.68;3.70;;;19.00;99.90;;;;;;5071385;28;20568;-78
2022/06/25 04:41:21;;;;;;;7.78;3.38;;;19.10;99.90;;;;;;5071409;28;20048;-77
2022/06/25 04:43:47;;;;;;;8.40;3.28;;;19.10;99.90;;;;;;5071334;28;20069;-78
2022/06/25 04:46:13;;;;;;;6.30;3.05;;;19.10;99.90;;;;;;5057009;28;20473;-78
2022/06/25 04:48:39;;;;;;;7.35;2.95;;;19.00;99.90;;;;;;5071613;28;20500;-77
2022/06/25 04:51:05;;;;;;;8.15;3.20;;;19.10;99.90;;;;;;5067794;28;20021;-78
2022/06/25 04:53:31;;;;;;;8.65;2.90;;;19.10;99.90;;;;;;5061042;28;20028;-78
2022/06/25 04:55:57;;;;;;;9.35;2.83;;;19.10;99.90;;;;;;5071160;28;20029;-77
2022/06/25 04:58:23;;;;;;;7.65;3.08;;;19.10;99.90;;;;;;5071158;28;20028;-77
2022/06/25 05:00:49;;;;;;;9.00;3.20;;;19.10;99.90;;;;;;5070920;28;20029;-78
2022/06/25 05:03:14;;;;;;;7.57;2.67;;;19.10;99.90;;;;;;5057318;28;20029;-78
2022/06/25 05:05:40;;;;;;;9.38;2.83;;;19.10;99.90;;;;;;5071155;28;20534;-77
2022/06/25 05:08:06;;;;;;;5.90;2.85;;;19.20;99.90;;;;;;5070977;28;20052;-78
2022/06/25 05:10:31;;;;;;;8.07;2.97;;;19.20;99.90;;;;;;5061171;28;20021;-77
2022/06/25 05:13:12;;;;;;;8.80;3.00;;;19.20;99.90;;;;;;5066815;28;20031;-78
2022/06/25 05:15:41;;;;;;;7.03;2.63;;;19.20;99.90;;;;;;5071078;28;20028;-78
2022/06/25 05:18:11;;;;;;;9.27;2.90;;;19.20;99.90;;;;;;5071099;28;20132;-79
2022/06/25 05:20:41;;;;;;;9.18;2.70;;;19.30;99.90;;;;;;5071511;28;20453;-77
2022/06/25 05:23:07;;;;;;;8.55;2.90;;;19.30;99.90;;;;;;5070909;28;20084;-78
2022/06/25 05:25:33;;;;;;;7.20;2.75;;;19.30;99.90;;;;;;5066954;28;20057;-79
2022/06/25 05:27:58;;;;;;;7.93;2.75;;;19.40;99.90;;;;;;5060486;28;20071;-77
2022/06/25 05:30:24;;;;;;;9.60;3.00;;;19.40;99.90;;;;;;5070986;28;20025;-79
2022/06/25 05:32:50;;;;;;;5.32;2.90;;;19.40;99.90;;;;;;5070631;28;20416;-77
2022/06/25 05:35:15;;;;;;;5.90;2.97;;;19.40;99.90;;;;;;5057316;28;20539;-78
2022/06/25 05:37:41;;;;;;;11.15;3.42;;;19.40;99.90;;;;;;5066961;28;20056;-79
2022/06/25 05:40:07;;;;;;;7.82;2.55;;;19.40;99.90;;;;;;5061320;28;20088;-78
2022/06/25 05:42:34;;;;;;;8.25;3.08;;;19.50;99.90;;;;;;5047149;28;20119;-78
2022/06/25 05:44:59;;;;;;;7.07;3.25;;;19.50;99.90;;;;;;5064420;28;20090;-78
2022/06/25 05:47:25;;;;;;;11.27;2.95;;;19.50;99.90;;;;;;5061498;28;20021;-77
2022/06/25 05:49:50;;;;;;;8.82;3.00;;;19.50;99.90;;;;;;5070476;28;20033;-78
2022/06/25 05:52:16;;;;;;;9.65;2.95;;;19.60;99.90;;;;;;5070584;28;20099;-77
2022/06/25 05:54:42;;;;;;;6.30;2.53;;;19.70;99.90;;;;;;5058722;28;20021;-78
2022/06/25 05:57:07;;;;;;;5.75;2.70;;;19.70;99.90;;;;;;5040829;28;20032;-78
2022/06/25 05:59:33;;;;;;;6.55;2.33;;;19.80;99.90;;;;;;5055981;28;20021;-79
2022/06/25 06:01:59;;;;;;;5.70;2.90;;;19.80;99.90;;;;;;5065484;28;20106;-78
2022/06/25 06:04:24;;;;;;;8.02;2.63;;;20.00;99.90;;;;;;5070802;28;20472;-75
2022/06/25 06:06:51;;;;;;;9.77;2.28;;;20.00;99.90;;;;;;5048572;28;20028;-75
2022/06/25 06:09:17;;;;;;;5.30;2.50;;;20.10;99.90;;;;;;5068710;28;20036;-75
2022/06/25 06:11:42;;;;;;;5.05;2.42;;;20.10;99.90;;;;;;5069870;28;20023;-75
2022/06/25 06:14:08;;;;;;;5.57;2.42;;;20.10;99.90;;;;;;5060362;28;20033;-74
2022/06/25 06:16:33;;;;;;;3.55;2.33;;;20.20;99.90;;;;;;5054907;28;20024;-75
2022/06/25 06:18:59;;;;;;;4.20;2.40;;;20.20;99.90;;;;;;5061615;28;20526;-79
2022/06/25 06:21:25;;;;;;;6.70;3.08;;;20.20;99.90;;;;;;5047766;28;20016;-80
2022/06/25 06:23:50;;;;;;;7.88;3.28;;;20.30;99.90;;;;;;5066664;28;20017;-82
2022/06/25 06:26:16;;;;;;;6.03;2.70;;;20.40;99.90;;;;;;5041078;28;20429;-82
2022/06/25 06:28:43;;;;;;;5.88;2.67;;;20.50;99.90;;;;;;5041128;28;20049;-83
2022/06/25 06:31:08;;;;;;;4.93;2.30;;;20.50;99.90;;;;;;5051000;28;20021;-85
2022/06/25 06:33:35;;;;;;;5.38;2.40;;;20.60;99.90;;;;;;5048630;28;20032;-83
2022/06/25 06:36:01;;;;;;;4.40;2.47;;;20.60;99.90;;;;;;5067339;28;20372;-85
2022/06/25 06:38:27;;;;;;;3.95;2.25;;;20.60;99.90;;;;;;5060146;28;20452;-87
2022/06/25 06:40:52;;;;;;;5.45;2.05;;;20.50;99.90;;;;;;5059209;28;20366;-84
2022/06/25 06:43:18;;;;;;;6.90;2.63;;;20.60;99.90;;;;;;5060790;28;20029;-84
2022/06/25 06:45:43;;;;;;;5.15;2.30;;;20.50;99.90;;;;;;5072902;28;20024;-81
2022/06/25 06:48:09;;;;;;;5.55;2.50;;;20.50;99.90;;;;;;5067488;28;20021;-85
2022/06/25 06:50:34;;;;;;;5.10;2.00;;;20.40;99.90;;;;;;5072806;28;20521;-84
2022/06/25 06:53:00;;;;;;;4.75;2.03;;;20.40;99.90;;;;;;5060913;28;20024;-84
2022/06/25 06:55:26;;;;;;;3.38;2.00;;;20.40;99.90;;;;;;5060104;28;20025;-83
2022/06/25 06:57:51;;;;;;;4.28;1.80;;;20.40;99.90;;;;;;5070213;28;20016;-84
2022/06/25 07:00:17;;;;;;;5.70;2.05;;;20.50;99.90;;;;;;5072593;28;20388;-83
2022/06/25 07:02:43;;;;;;;5.57;2.38;;;20.40;99.90;;;;;;5071366;28;20017;-84
2022/06/25 07:05:09;;;;;;;5.28;2.78;;;20.40;99.90;;;;;;5068963;28;20029;-86
2022/06/25 07:07:35;;;;;;;6.53;2.65;;;20.50;99.90;;;;;;5054553;28;20016;-79
2022/06/25 07:10:00;;;;;;;9.95;2.95;;;20.40;99.90;;;;;;5072854;28;20429;-78
2022/06/25 07:12:26;;;;;;;5.05;2.92;;;20.40;99.90;;;;;;5072803;28;20028;-78
2022/06/25 07:14:51;;;;;;;3.92;2.40;;;20.20;99.90;;;;;;5072807;28;20075;-79
2022/06/25 07:17:17;;;;;;;6.88;2.80;;;20.20;99.90;;;;;;5072857;28;20031;-79
2022/06/25 07:19:42;;;;;;;5.50;2.83;;;20.20;99.90;;;;;;5071114;28;20055;-79
2022/06/25 07:22:08;;;;;;;4.38;2.60;;;20.20;99.90;;;;;;5066080;28;20028;-78
2022/06/25 07:24:34;;;;;;;7.13;2.70;;;20.20;99.90;;;;;;5072378;28;20060;-78
2022/06/25 07:26:59;;;;;;;5.00;2.60;;;20.20;99.90;;;;;;5058584;28;20025;-79
2022/06/25 07:29:25;;;;;;;5.28;2.78;;;20.20;99.90;;;;;;5064980;28;20037;-79
2022/06/25 07:31:51;;;;;;;4.38;2.70;;;20.20;99.90;;;;;;5066567;28;20027;-81
2022/06/25 07:34:17;;;;;;;4.35;2.30;;;20.20;99.90;;;;;;5071161;28;20489;-82
2022/06/25 07:36:43;;;;;;;3.65;2.10;;;20.20;99.90;;;;;;5061479;28;20094;-82
2022/06/25 07:39:08;;;;;;;4.97;2.50;;;20.20;99.90;;;;;;5059240;28;20031;-82
2022/06/25 07:41:34;;;;;;;6.82;2.42;;;20.20;99.90;;;;;;5053172;28;20072;-81
2022/06/25 07:44:00;;;;;;;4.15;2.72;;;20.30;99.90;;;;;;5068627;28;20028;-81
2022/06/25 07:46:26;;;;;;;7.50;2.75;;;20.30;99.90;;;;;;5053612;28;20063;-82
2022/06/25 07:48:52;;;;;;;6.85;2.80;;;20.30;99.90;;;;;;5071894;28;20237;-80
2022/06/25 07:54:01;;;;;;;8.75;2.20;;;20.40;99.90;;;;;;5072962;28;20499;-82
2022/06/25 07:56:27;;;;;;;11.18;2.28;;;20.40;99.90;;;;;;5075494;28;20021;-81
2022/06/25 07:58:52;;;;;;;7.65;2.20;;;20.30;99.90;;;;;;5073403;28;20438;-83
2022/06/25 08:01:18;;;;;;;7.18;2.10;;;20.30;99.90;;;;;;5071114;28;20278;-80
2022/06/25 08:03:44;;;;;;;7.75;2.20;;;20.20;99.90;;;;;;5061216;28;20059;-79
2022/06/25 08:06:10;;;;;;;9.80;2.20;;;20.20;99.90;;;;;;5072931;28;20020;-81
2022/06/25 08:08:36;;;;;;;5.65;1.95;;;20.20;99.90;;;;;;5057301;28;20076;-81
2022/06/25 08:11:01;;;;;;;9.55;1.92;;;20.20;99.90;;;;;;5078129;28;20052;-77
2022/06/25 08:13:27;;;;;;;8.27;2.20;;;20.20;99.90;;;;;;5075289;28;20016;-79
2022/06/25 08:15:53;;;;;;;6.15;1.90;;;20.20;99.90;;;;;;5075009;28;20025;-83
2022/06/25 08:18:20;;;;;;;9.10;1.83;;;20.20;99.90;;;;;;5074196;28;20027;-79
2022/06/25 08:20:45;;;;;;;9.55;1.83;;;20.10;99.90;;;;;;5071052;28;20073;-82
2022/06/25 08:23:11;;;;;;;7.85;1.80;;;20.10;99.90;;;;;;5074357;28;20080;-81
2022/06/25 08:25:36;;;;;;;5.93;1.90;;;20.10;99.90;;;;;;5077764;28;20106;-80
2022/06/25 08:28:03;;;;;;;11.48;2.67;;;20.10;99.90;;;;;;5070038;28;20461;-83
2022/06/25 08:30:29;;;;;;;6.07;1.77;;;20.10;99.90;;;;;;5060731;28;20028;-82
2022/06/25 08:32:55;;;;;;;9.55;2.40;;;20.00;99.90;;;;;;5083276;28;20074;-81
2022/06/25 08:35:22;;;;;;;5.88;1.92;;;20.00;99.90;;;;;;5079838;28;20097;-83
2022/06/25 08:37:49;;;;;;;7.80;2.03;;;20.00;99.90;;;;;;5074971;28;20013;-84
2022/06/25 08:40:20;;;;;;;7.80;2.20;;;20.00;99.90;;;;;;5073819;28;20460;-84
2022/06/25 08:42:49;;;;;;;15.35;2.70;;;20.00;99.90;;;;;;5059431;28;20020;-84
2022/06/25 08:45:18;;;;;;;15.40;3.70;;;20.00;99.90;;;;;;5073388;28;20435;-83
2022/06/25 08:47:49;;;;;;;8.85;2.45;;;20.00;99.90;;;;;;5072095;28;20411;-77
2022/06/25 08:50:17;;;;;;;16.20;3.17;;;19.90;99.90;;;;;;5070154;28;20477;-78
2022/06/25 08:52:45;;;;;;;9.85;2.22;;;19.90;99.90;;;;;;5070441;28;20081;-78
2022/06/25 08:55:31;;;;;;;14.32;3.28;;;19.90;99.90;;;;;;5070180;28;20047;-77
2022/06/25 08:57:57;;;;;;;10.63;2.40;;;19.90;99.90;;;;;;5060350;28;20747;-77
2022/06/25 09:00:24;;;;;;;16.30;2.75;;;19.80;99.90;;;;;;5069130;28;20028;-79
2022/06/25 09:02:51;;;;;;;7.72;2.00;;;19.70;99.90;;;;;;5052648;28;20068;-82
2022/06/25 09:05:16;;;;;;;10.35;2.38;;;19.60;99.90;;;;;;5066592;28;20021;-82
2022/06/25 09:07:53;;;;;;;7.28;1.80;;;19.50;99.90;;;;;;5057550;28;20066;-82
2022/06/25 09:10:20;;;;;;;10.68;2.83;;;19.50;99.90;;;;;;5059339;28;20119;-82
2022/06/25 09:12:54;;;;;;;8.93;1.95;;;19.30;99.90;;;;;;5055687;28;20024;-81
2022/06/25 09:15:44;;;;;;;8.75;2.00;;;19.20;99.90;;;;;;5058211;28;20043;-81
2022/06/25 09:18:15;;;;;;;8.07;2.10;;;19.20;99.90;;;;;;5046074;28;20036;-81
2022/06/25 09:21:09;;;;;;;8.23;1.65;;;19.20;99.90;;;;;;5056559;28;20376;-82
2022/06/25 09:23:55;;;;;;;7.47;2.00;;;19.30;99.90;;;;;;5040512;28;20064;-82
2022/06/25 09:26:21;;;;;;;5.78;1.63;;;19.30;99.90;;;;;;5051217;28;20490;-82
2022/06/25 09:28:46;;;;;;;12.18;2.08;;;19.30;99.90;;;;;;5058793;28;20048;-81
2022/06/25 09:31:13;;;;;;;8.93;2.13;;;19.30;99.90;;;;;;5056858;28;20029;-81
2022/06/25 09:33:40;;;;;;;7.90;2.08;;;19.30;99.90;;;;;;5055030;28;20021;-81
2022/06/25 09:36:09;;;;;;;9.55;1.80;;;19.30;99.90;;;;;;5066888;28;20025;-82
2022/06/25 09:38:50;;;;;;;12.15;2.30;;;19.30;99.90;;;;;;5068167;28;20070;-81
2022/06/25 09:41:16;;;;;;;8.95;1.98;;;19.30;99.90;;;;;;5047440;28;20531;-81
2022/06/25 09:43:47;;;;;;;8.82;2.00;;;19.30;99.90;;;;;;5054877;28;20112;-82
2022/06/25 09:46:13;;;;;;;7.05;2.50;;;19.30;99.90;;;;;;5059686;28;20068;-82
2022/06/25 09:48:41;;;;;;;8.95;2.65;;;19.40;99.90;;;;;;5070766;28;20467;-83
2022/06/25 09:51:23;;;;;;;14.30;2.42;;;19.40;99.90;;;;;;5049571;28;20332;-83
2022/06/25 09:53:50;;;;;;;12.70;2.65;;;19.60;99.90;;;;;;5057787;28;20579;-84
2022/06/25 09:56:22;;;;;;;8.80;2.85;;;19.70;99.90;;;;;;5057493;28;20025;-82
2022/06/25 09:58:50;;;;;;;10.52;2.58;;;19.70;99.90;;;;;;5061572;28;20036;-84
2022/06/25 10:01:17;;;;;;;13.00;2.97;;;19.70;99.90;;;;;;5073412;28;20021;-85
2022/06/25 10:03:44;;;;;;;13.15;3.60;;;19.70;99.90;;;;;;5077241;28;20166;-86
2022/06/25 10:06:11;;;;;;;12.60;3.38;;;19.90;99.90;;;;;;5073585;28;20040;-82
2022/06/25 10:08:38;;;;;;;12.55;3.08;;;20.00;99.90;;;;;;5073772;28;20021;-81
2022/06/25 10:11:05;;;;;;;11.93;2.65;;;20.00;99.90;;;;;;5076578;28;20142;-81
2022/06/25 10:13:31;;;;;;;12.45;3.17;;;20.20;99.90;;;;;;5073430;28;20031;-83
2022/06/25 10:15:57;;;;;;;11.40;3.33;;;20.30;99.90;;;;;;5077417;28;20076;-82
2022/06/25 10:18:25;;;;;;;10.43;3.03;;;20.50;99.90;;;;;;5097256;28;20028;-82
2022/06/25 10:20:51;;;;;;;12.85;3.33;;;20.60;99.90;;;;;;5081560;28;20028;-76
2022/06/25 10:23:21;;;;;;;9.70;2.55;;;20.70;99.90;;;;;;5071971;28;20029;-77
2022/06/25 10:25:47;;;;;;;10.02;2.58;;;20.70;99.90;;;;;;5073288;28;20017;-77
2022/06/25 10:28:15;;;;;;;9.25;2.63;;;20.70;99.90;;;;;;5073508;28;20045;-78
2022/06/25 10:30:44;;;;;;;15.52;2.63;;;20.90;99.90;;;;;;5055554;28;20012;-77
2022/06/25 10:33:11;;;;;;;11.05;2.42;;;21.10;99.90;;;;;;5063154;28;20387;-77
2022/06/25 10:35:39;;;;;;;7.07;2.10;;;21.30;99.90;;;;;;5067351;28;20548;-77
2022/06/25 10:38:11;;;;;;;11.23;2.10;;;21.50;99.90;;;;;;5053131;28;20500;-77
2022/06/25 10:40:51;;;;;;;7.38;2.17;;;21.70;99.90;;;;;;5051132;28;20365;-77
2022/06/25 10:43:40;;;;;;;8.57;3.03;;;22.00;99.90;;;;;;5073088;28;20035;-77
2022/06/25 10:46:21;;;;;;;9.68;2.78;;;22.10;99.90;;;;;;5058671;28;20473;-77
2022/06/25 10:49:11;;;;;;;8.25;2.95;;;22.20;99.90;;;;;;5072877;28;20760;-77
2022/06/25 10:51:51;;;;;;;7.55;3.13;;;22.20;99.90;;;;;;5061552;28;20020;-77
2022/06/25 10:54:24;;;;;;;10.02;3.75;;;22.20;99.90;;;;;;5072639;28;20476;-78
2022/06/25 10:56:55;;;;;;;9.20;4.10;;;22.30;99.90;;;;;;5072733;28;20090;-78
2022/06/25 10:59:35;;;;;;;7.22;4.15;;;22.30;99.90;;;;;;5072486;28;20385;-77
2022/06/25 11:02:06;;;;;;;9.40;4.50;;;22.40;99.90;;;;;;5072752;28;20025;-77
2022/06/25 11:04:32;;;;;;;7.53;4.22;;;22.50;99.90;;;;;;5058703;28;20389;-77
2022/06/25 11:07:12;;;;;;;6.03;3.60;;;22.60;99.90;;;;;;5072790;28;20037;-76
2022/06/25 11:09:39;;;;;;;7.82;5.03;;;22.80;99.90;;;;;;5072461;28;20062;-77
2022/06/25 11:12:06;;;;;;;9.52;4.95;;;22.90;99.90;;;;;;5072189;28;20488;-77
2022/06/25 11:14:32;;;;;;;9.57;4.55;;;23.00;99.90;;;;;;5072447;28;20029;-77
2022/06/25 11:17:09;;;;;;;8.93;4.82;;;23.10;99.90;;;;;;5072921;28;20027;-77
2022/06/25 11:19:36;;;;;;;9.10;4.93;;;23.20;99.90;;;;;;5072614;28;20034;-79
2022/06/25 11:22:02;;;;;;;8.93;5.63;;;23.10;99.90;;;;;;5073450;28;20048;-79
2022/06/25 11:24:29;;;;;;;11.05;6.00;;;23.10;99.90;;;;;;5072741;28;20082;-78
2022/06/25 11:29:46;;;;;;;6.38;4.70;;;23.30;99.90;;;;;;5072201;28;20106;-78
2022/06/25 11:32:14;;;;;;;9.45;5.00;;;23.60;99.90;;;;;;5072210;28;20029;-77
2022/06/25 11:34:41;;;;;;;6.55;4.45;;;23.70;99.90;;;;;;5072439;28;20025;-77
2022/06/25 11:37:12;;;;;;;9.00;4.75;;;23.80;99.90;;;;;;5072437;28;20051;-77
2022/06/25 11:39:40;;;;;;;7.32;4.53;;;23.80;99.90;;;;;;5072180;28;20032;-78
2022/06/25 11:42:10;;;;;;;9.07;4.35;;;23.70;99.90;;;;;;5054201;28;20555;-77
2022/06/25 11:44:43;;;;;;;9.80;4.10;;;23.70;99.90;;;;;;5058650;28;20025;-77
2022/06/25 11:47:12;;;;;;;8.98;4.30;;;23.70;99.90;;;;;;5070744;28;20112;-76
2022/06/25 11:49:39;;;;;;;10.48;4.35;;;23.70;99.90;;;;;;5072147;28;20100;-77
2022/06/25 11:52:06;;;;;;;10.65;4.82;;;23.80;99.90;;;;;;5072294;28;20029;-77
2022/06/25 11:54:36;;;;;;;8.63;4.50;;;23.80;99.90;;;;;;5071772;28;20407;-77
2022/06/25 11:57:03;;;;;;;9.70;4.80;;;23.70;99.90;;;;;;5072062;28;20438;-77
2022/06/25 11:59:31;;;;;;;7.63;5.07;;;23.70;99.90;;;;;;5053683;28;20460;-77
2022/06/25 12:01:59;;;;;;;10.00;5.05;;;23.50;99.90;;;;;;5071924;28;20415;-77
2022/06/25 12:04:28;;;;;;;9.07;4.63;;;23.40;99.90;;;;;;5071944;28;20024;-77
2022/06/25 12:06:53;;;;;;;8.48;4.18;;;23.30;99.90;;;;;;5071718;28;20028;-77
2022/06/25 12:09:21;;;;;;;4.25;2.50;;;23.30;99.90;;;;;;5071461;28;20046;-77
2022/06/25 12:11:55;;;;;;;4.50;2.17;;;23.30;99.90;;;;;;5071305;28;20020;-77
2022/06/25 12:14:23;;;;;;;6.40;2.50;;;23.10;99.90;;;;;;5071820;28;20028;-77
2022/06/25 12:16:49;;;;;;;4.47;2.38;;;23.00;99.90;;;;;;5071416;28;20369;-77
2022/06/25 12:19:16;;;;;;;6.20;2.72;;;22.90;99.90;;;;;;5071332;28;20553;-77
2022/06/25 12:21:42;;;;;;;6.43;2.42;;;23.00;99.90;;;;;;5071485;28;20030;-77
2022/06/25 12:24:12;;;;;;;6.50;2.40;;;23.10;99.90;;;;;;5070570;28;20021;-77
2022/06/25 12:26:39;;;;;;;2.92;1.73;;;23.30;99.90;;;;;;5059060;28;20029;-77
2022/06/25 12:29:10;;;;;;;6.93;2.00;;;23.40;99.90;;;;;;5069883;28;20057;-77
2022/06/25 12:31:37;;;;;;;4.32;1.42;;;23.60;99.90;;;;;;5071156;28;20546;-77
2022/06/25 12:34:06;;;;;;;3.58;1.83;;;23.70;99.90;;;;;;5057080;28;20412;-77
2022/06/25 12:36:37;;;;;;;4.32;1.63;;;23.90;99.90;;;;;;5071455;28;20050;-77
2022/06/25 12:39:31;;;;;;;3.67;1.90;;;24.10;99.90;;;;;;5068747;28;20035;-78
2022/06/25 12:42:03;;;;;;;4.60;1.60;;;24.20;99.90;;;;;;5063889;28;20028;-77
2022/06/25 12:44:34;;;;;;;4.00;1.50;;;24.30;99.90;;;;;;5070963;28;20021;-77
2022/06/25 12:47:06;;;;;;;5.82;1.60;;;24.40;99.90;;;;;;5070960;28;20565;-77
2022/06/25 12:49:58;;;;;;;3.53;1.50;;;24.40;99.70;;;;;;5065615;28;20021;-77
2022/06/25 12:52:38;;;;;;;5.28;1.60;;;24.40;99.20;;;;;;5061046;28;20115;-77